sensor_id;sensor_type;location;lat;lon;timestamp;P1;durP1;ratioP1;P2;durP2;ratioP2
57535;SDS011;43361;49.790;8.960;2022-11-04T00:06:17;12.63;;;7.93;;
57535;SDS011;43361;49.790;8.960;2022-11-04T00:16:19;13.60;;;8.23;;
57535;SDS011;43361;49.790;8.960;2022-11-04T00:26:55;11.75;;;7.47;;
57535;SDS011;43361;49.790;8.960;2022-11-04T00:37:15;13.75;;;7.53;;
57535;SDS011;43361;49.790;8.960;2022-11-04T00:47:15;10.95;;;6.47;;
57535;SDS011;43361;49.790;8.960;2022-11-04T00:57:17;11.68;;;6.32;;
57535;SDS011;43361;49.790;8.960;2022-11-04T01:07:17;10.52;;;6.28;;
57535;SDS011;43361;49.790;8.960;2022-11-04T01:17:19;10.85;;;6.22;;
57535;SDS011;43361;49.790;8.960;2022-11-04T01:27:20;7.88;;;5.07;;
57535;SDS011;43361;49.790;8.960;2022-11-04T01:37:21;8.50;;;5.40;;
57535;SDS011;43361;49.790;8.960;2022-11-04T01:47:23;6.45;;;4.50;;
57535;SDS011;43361;49.790;8.960;2022-11-04T01:57:28;7.38;;;4.78;;
57535;SDS011;43361;49.790;8.960;2022-11-04T02:07:29;9.23;;;4.63;;
57535;SDS011;43361;49.790;8.960;2022-11-04T02:17:35;7.00;;;4.45;;
57535;SDS011;43361;49.790;8.960;2022-11-04T02:27:42;7.20;;;4.20;;
57535;SDS011;43361;49.790;8.960;2022-11-04T02:37:48;5.38;;;3.55;;
57535;SDS011;43361;49.790;8.960;2022-11-04T02:47:52;6.13;;;3.83;;
57535;SDS011;43361;49.790;8.960;2022-11-04T02:57:56;5.72;;;3.58;;
57535;SDS011;43361;49.790;8.960;2022-11-04T03:07:59;6.47;;;3.05;;
57535;SDS011;43361;49.790;8.960;2022-11-04T03:18:03;5.05;;;3.05;;
57535;SDS011;43361;49.790;8.960;2022-11-04T03:28:09;4.35;;;3.00;;
57535;SDS011;43361;49.790;8.960;2022-11-04T03:38:14;4.45;;;2.70;;
57535;SDS011;43361;49.790;8.960;2022-11-04T03:48:14;5.32;;;2.78;;
57535;SDS011;43361;49.790;8.960;2022-11-04T03:58:18;5.25;;;2.72;;
57535;SDS011;43361;49.790;8.960;2022-11-04T04:08:25;3.85;;;2.50;;
57535;SDS011;43361;49.790;8.960;2022-11-04T04:18:32;3.45;;;2.30;;
57535;SDS011;43361;49.790;8.960;2022-11-04T04:28:34;4.75;;;2.55;;
57535;SDS011;43361;49.790;8.960;2022-11-04T04:38:36;2.90;;;2.00;;
57535;SDS011;43361;49.790;8.960;2022-11-04T04:49:02;3.17;;;1.80;;
57535;SDS011;43361;49.790;8.960;2022-11-04T04:59:04;3.00;;;1.70;;
57535;SDS011;43361;49.790;8.960;2022-11-04T05:09:05;2.60;;;1.75;;
57535;SDS011;43361;49.790;8.960;2022-11-04T05:19:07;3.13;;;1.85;;
57535;SDS011;43361;49.790;8.960;2022-11-04T05:29:07;2.58;;;1.50;;
57535;SDS011;43361;49.790;8.960;2022-11-04T05:39:11;2.28;;;1.52;;
57535;SDS011;43361;49.790;8.960;2022-11-04T05:49:12;2.75;;;1.50;;
57535;SDS011;43361;49.790;8.960;2022-11-04T05:59:13;2.97;;;1.35;;
57535;SDS011;43361;49.790;8.960;2022-11-04T06:09:14;2.30;;;1.25;;
57535;SDS011;43361;49.790;8.960;2022-11-04T06:19:16;3.72;;;1.65;;
57535;SDS011;43361;49.790;8.960;2022-11-04T06:29:16;1.92;;;1.27;;
57535;SDS011;43361;49.790;8.960;2022-11-04T06:39:18;1.67;;;1.17;;
57535;SDS011;43361;49.790;8.960;2022-11-04T06:49:19;3.10;;;1.45;;
57535;SDS011;43361;49.790;8.960;2022-11-04T06:59:21;6.43;;;1.55;;
57535;SDS011;43361;49.790;8.960;2022-11-04T07:09:23;5.20;;;1.50;;
57535;SDS011;43361;49.790;8.960;2022-11-04T07:19:24;9.07;;;2.60;;
57535;SDS011;43361;49.790;8.960;2022-11-04T07:29:25;17.73;;;3.58;;
57535;SDS011;43361;49.790;8.960;2022-11-04T07:39:27;9.32;;;2.63;;
57535;SDS011;43361;49.790;8.960;2022-11-04T07:49:27;9.13;;;2.45;;
57535;SDS011;43361;49.790;8.960;2022-11-04T07:59:29;12.02;;;2.50;;
57535;SDS011;43361;49.790;8.960;2022-11-04T08:09:29;21.00;;;3.25;;
57535;SDS011;43361;49.790;8.960;2022-11-04T08:19:31;14.30;;;3.80;;
57535;SDS011;43361;49.790;8.960;2022-11-04T08:29:31;16.42;;;2.38;;
57535;SDS011;43361;49.790;8.960;2022-11-04T08:39:33;9.27;;;2.50;;
57535;SDS011;43361;49.790;8.960;2022-11-04T08:49:36;10.25;;;3.45;;
57535;SDS011;43361;49.790;8.960;2022-11-04T08:59:38;7.88;;;2.80;;
57535;SDS011;43361;49.790;8.960;2022-11-04T09:09:39;11.38;;;3.55;;
57535;SDS011;43361;49.790;8.960;2022-11-04T09:19:40;9.05;;;3.67;;
57535;SDS011;43361;49.790;8.960;2022-11-04T09:29:41;12.93;;;2.83;;
57535;SDS011;43361;49.790;8.960;2022-11-04T09:39:43;9.40;;;3.08;;
57535;SDS011;43361;49.790;8.960;2022-11-04T09:49:43;8.30;;;3.00;;
57535;SDS011;43361;49.790;8.960;2022-11-04T09:59:46;9.65;;;3.08;;
57535;SDS011;43361;49.790;8.960;2022-11-04T10:09:50;12.60;;;3.20;;
57535;SDS011;43361;49.790;8.960;2022-11-04T10:19:58;7.65;;;2.83;;
57535;SDS011;43361;49.790;8.960;2022-11-04T10:30:01;10.30;;;3.33;;
57535;SDS011;43361;49.790;8.960;2022-11-04T10:40:05;10.10;;;3.10;;
57535;SDS011;43361;49.790;8.960;2022-11-04T10:50:27;8.57;;;2.60;;
57535;SDS011;43361;49.790;8.960;2022-11-04T11:00:37;6.07;;;2.40;;
57535;SDS011;43361;49.790;8.960;2022-11-04T11:10:38;7.00;;;2.35;;
57535;SDS011;43361;49.790;8.960;2022-11-04T11:21:02;7.22;;;2.47;;
57535;SDS011;43361;49.790;8.960;2022-11-04T11:31:06;59.38;;;19.95;;
57535;SDS011;43361;49.790;8.960;2022-11-04T11:41:12;51.10;;;16.30;;
57535;SDS011;43361;49.790;8.960;2022-11-04T11:51:22;51.10;;;13.38;;
57535;SDS011;43361;49.790;8.960;2022-11-04T12:01:25;49.50;;;11.55;;
57535;SDS011;43361;49.790;8.960;2022-11-04T12:11:30;36.97;;;11.30;;
57535;SDS011;43361;49.790;8.960;2022-11-04T12:21:34;36.90;;;11.57;;
57535;SDS011;43361;49.790;8.960;2022-11-04T12:31:40;27.98;;;7.75;;
57535;SDS011;43361;49.790;8.960;2022-11-04T12:41:45;25.17;;;8.13;;
57535;SDS011;43361;49.790;8.960;2022-11-04T12:51:49;22.52;;;7.40;;
57535;SDS011;43361;49.790;8.960;2022-11-04T13:01:56;29.15;;;7.18;;
57535;SDS011;43361;49.790;8.960;2022-11-04T13:12:00;24.42;;;7.55;;
57535;SDS011;43361;49.790;8.960;2022-11-04T13:22:04;29.58;;;9.02;;
57535;SDS011;43361;49.790;8.960;2022-11-04T13:32:07;27.48;;;7.50;;
57535;SDS011;43361;49.790;8.960;2022-11-04T13:42:25;33.08;;;8.10;;
57535;SDS011;43361;49.790;8.960;2022-11-04T13:52:29;27.05;;;6.15;;
57535;SDS011;43361;49.790;8.960;2022-11-04T14:02:38;24.02;;;5.28;;
57535;SDS011;43361;49.790;8.960;2022-11-04T14:12:38;18.73;;;5.55;;
57535;SDS011;43361;49.790;8.960;2022-11-04T14:22:47;20.98;;;5.35;;
57535;SDS011;43361;49.790;8.960;2022-11-04T14:32:50;21.90;;;4.78;;
57535;SDS011;43361;49.790;8.960;2022-11-04T14:42:55;45.47;;;4.90;;
57535;SDS011;43361;49.790;8.960;2022-11-04T14:52:57;15.50;;;4.68;;
57535;SDS011;43361;49.790;8.960;2022-11-04T15:03:04;17.85;;;5.15;;
57535;SDS011;43361;49.790;8.960;2022-11-04T15:13:06;19.60;;;6.75;;
57535;SDS011;43361;49.790;8.960;2022-11-04T15:23:10;22.27;;;6.40;;
57535;SDS011;43361;49.790;8.960;2022-11-04T15:33:14;20.85;;;6.85;;
57535;SDS011;43361;49.790;8.960;2022-11-04T15:43:17;20.80;;;5.90;;
57535;SDS011;43361;49.790;8.960;2022-11-04T15:53:18;22.38;;;6.88;;
57535;SDS011;43361;49.790;8.960;2022-11-04T16:03:20;15.40;;;5.65;;
57535;SDS011;43361;49.790;8.960;2022-11-04T16:13:23;20.05;;;5.38;;
57535;SDS011;43361;49.790;8.960;2022-11-04T16:23:26;14.68;;;5.22;;
57535;SDS011;43361;49.790;8.960;2022-11-04T16:33:30;20.58;;;5.65;;
57535;SDS011;43361;49.790;8.960;2022-11-04T16:43:32;15.48;;;5.10;;
57535;SDS011;43361;49.790;8.960;2022-11-04T16:53:33;13.48;;;4.65;;
57535;SDS011;43361;49.790;8.960;2022-11-04T17:03:35;12.38;;;4.75;;
57535;SDS011;43361;49.790;8.960;2022-11-04T17:13:35;15.98;;;4.30;;
57535;SDS011;43361;49.790;8.960;2022-11-04T17:23:37;10.55;;;4.13;;
57535;SDS011;43361;49.790;8.960;2022-11-04T17:33:38;13.57;;;3.95;;
57535;SDS011;43361;49.790;8.960;2022-11-04T17:43:39;11.40;;;4.57;;
57535;SDS011;43361;49.790;8.960;2022-11-04T17:53:58;16.77;;;4.27;;
57535;SDS011;43361;49.790;8.960;2022-11-04T18:04:00;15.35;;;4.05;;
57535;SDS011;43361;49.790;8.960;2022-11-04T18:14:01;10.25;;;3.72;;
57535;SDS011;43361;49.790;8.960;2022-11-04T18:24:03;13.38;;;4.30;;
57535;SDS011;43361;49.790;8.960;2022-11-04T18:34:04;13.27;;;3.58;;
57535;SDS011;43361;49.790;8.960;2022-11-04T18:44:07;10.15;;;3.45;;
57535;SDS011;43361;49.790;8.960;2022-11-04T18:54:12;9.02;;;3.15;;
57535;SDS011;43361;49.790;8.960;2022-11-04T19:04:13;10.35;;;3.55;;
57535;SDS011;43361;49.790;8.960;2022-11-04T19:14:14;9.32;;;2.75;;
57535;SDS011;43361;49.790;8.960;2022-11-04T19:24:16;7.97;;;2.90;;
57535;SDS011;43361;49.790;8.960;2022-11-04T19:34:17;9.40;;;2.95;;
57535;SDS011;43361;49.790;8.960;2022-11-04T19:44:19;7.18;;;2.85;;
57535;SDS011;43361;49.790;8.960;2022-11-04T19:54:20;6.38;;;2.42;;
57535;SDS011;43361;49.790;8.960;2022-11-04T20:04:22;10.63;;;3.03;;
57535;SDS011;43361;49.790;8.960;2022-11-04T20:14:23;6.30;;;2.33;;
57535;SDS011;43361;49.790;8.960;2022-11-04T20:24:25;6.43;;;2.45;;
57535;SDS011;43361;49.790;8.960;2022-11-04T20:34:25;7.40;;;2.65;;
57535;SDS011;43361;49.790;8.960;2022-11-04T20:44:27;6.38;;;2.30;;
57535;SDS011;43361;49.790;8.960;2022-11-04T20:54:28;5.60;;;2.40;;
57535;SDS011;43361;49.790;8.960;2022-11-04T21:04:30;3.07;;;1.60;;
57535;SDS011;43361;49.790;8.960;2022-11-04T21:14:30;4.82;;;2.13;;
57535;SDS011;43361;49.790;8.960;2022-11-04T21:24:35;4.53;;;1.95;;
57535;SDS011;43361;49.790;8.960;2022-11-04T21:34:35;4.45;;;1.77;;
57535;SDS011;43361;49.790;8.960;2022-11-04T21:44:37;4.78;;;2.08;;
57535;SDS011;43361;49.790;8.960;2022-11-04T21:54:37;5.53;;;1.92;;
57535;SDS011;43361;49.790;8.960;2022-11-04T22:04:39;4.60;;;2.00;;
57535;SDS011;43361;49.790;8.960;2022-11-04T22:14:40;5.15;;;2.22;;
57535;SDS011;43361;49.790;8.960;2022-11-04T22:24:41;3.88;;;1.90;;
57535;SDS011;43361;49.790;8.960;2022-11-04T22:34:42;3.45;;;1.30;;
57535;SDS011;43361;49.790;8.960;2022-11-04T22:44:44;2.60;;;1.55;;
57535;SDS011;43361;49.790;8.960;2022-11-04T22:54:44;3.28;;;1.65;;
57535;SDS011;43361;49.790;8.960;2022-11-04T23:04:46;3.92;;;1.63;;
57535;SDS011;43361;49.790;8.960;2022-11-04T23:14:46;2.85;;;1.60;;
57535;SDS011;43361;49.790;8.960;2022-11-04T23:25:07;3.05;;;1.58;;
57535;SDS011;43361;49.790;8.960;2022-11-04T23:35:10;4.28;;;1.60;;
57535;SDS011;43361;49.790;8.960;2022-11-04T23:45:30;4.22;;;1.40;;
57535;SDS011;43361;49.790;8.960;2022-11-04T23:55:49;2.22;;;1.10;;
